sensor_id;sensor_type;location;lat;lon;timestamp;pressure;altitude;pressure_sealevel;temperature
11849;BMP180;5983;49.966;8.052;2022-11-20T00:00:22;100094.00;;;3.90
11849;BMP180;5983;49.966;8.052;2022-11-20T00:02:49;100094.00;;;3.90
11849;BMP180;5983;49.966;8.052;2022-11-20T00:05:16;100090.00;;;3.90
11849;BMP180;5983;49.966;8.052;2022-11-20T00:07:45;100089.00;;;3.90
11849;BMP180;5983;49.966;8.052;2022-11-20T00:10:12;100092.00;;;3.90
11849;BMP180;5983;49.966;8.052;2022-11-20T00:12:39;100097.00;;;4.00
11849;BMP180;5983;49.966;8.052;2022-11-20T00:15:08;100084.00;;;4.00
11849;BMP180;5983;49.966;8.052;2022-11-20T00:17:35;100090.00;;;3.90
11849;BMP180;5983;49.966;8.052;2022-11-20T00:20:03;100086.00;;;4.00
11849;BMP180;5983;49.966;8.052;2022-11-20T00:22:30;100094.00;;;4.00
11849;BMP180;5983;49.966;8.052;2022-11-20T00:24:58;100091.00;;;3.90
11849;BMP180;5983;49.966;8.052;2022-11-20T00:27:25;100090.00;;;4.00
11849;BMP180;5983;49.966;8.052;2022-11-20T00:29:52;100090.00;;;3.90
11849;BMP180;5983;49.966;8.052;2022-11-20T00:32:19;100081.00;;;3.90
11849;BMP180;5983;49.966;8.052;2022-11-20T00:34:46;100087.00;;;3.90
11849;BMP180;5983;49.966;8.052;2022-11-20T00:37:13;100087.00;;;3.90
11849;BMP180;5983;49.966;8.052;2022-11-20T00:39:40;100086.00;;;3.90
11849;BMP180;5983;49.966;8.052;2022-11-20T00:42:08;100077.00;;;3.90
11849;BMP180;5983;49.966;8.052;2022-11-20T00:44:35;100081.00;;;3.90
11849;BMP180;5983;49.966;8.052;2022-11-20T00:47:02;100069.00;;;3.90
11849;BMP180;5983;49.966;8.052;2022-11-20T00:49:29;100082.00;;;3.90
11849;BMP180;5983;49.966;8.052;2022-11-20T00:51:56;100074.00;;;4.00
11849;BMP180;5983;49.966;8.052;2022-11-20T00:54:24;100070.00;;;4.00
11849;BMP180;5983;49.966;8.052;2022-11-20T00:56:52;100067.00;;;4.00
11849;BMP180;5983;49.966;8.052;2022-11-20T00:59:21;100076.00;;;4.00
11849;BMP180;5983;49.966;8.052;2022-11-20T01:01:48;100086.00;;;4.00
11849;BMP180;5983;49.966;8.052;2022-11-20T01:04:15;100087.00;;;4.00
11849;BMP180;5983;49.966;8.052;2022-11-20T01:06:42;100079.00;;;4.00
11849;BMP180;5983;49.966;8.052;2022-11-20T01:09:11;100080.00;;;3.90
11849;BMP180;5983;49.966;8.052;2022-11-20T01:11:41;100081.00;;;3.90
11849;BMP180;5983;49.966;8.052;2022-11-20T01:14:11;100081.00;;;3.90
11849;BMP180;5983;49.966;8.052;2022-11-20T01:16:44;100084.00;;;3.90
11849;BMP180;5983;49.966;8.052;2022-11-20T01:19:14;100070.00;;;4.00
11849;BMP180;5983;49.966;8.052;2022-11-20T01:21:44;100081.00;;;3.90
11849;BMP180;5983;49.966;8.052;2022-11-20T01:24:16;100075.00;;;3.90
11849;BMP180;5983;49.966;8.052;2022-11-20T01:26:45;100067.00;;;3.90
11849;BMP180;5983;49.966;8.052;2022-11-20T01:29:16;100066.00;;;3.90
11849;BMP180;5983;49.966;8.052;2022-11-20T01:31:45;100069.00;;;3.90
11849;BMP180;5983;49.966;8.052;2022-11-20T01:34:14;100073.00;;;3.90
11849;BMP180;5983;49.966;8.052;2022-11-20T01:36:42;100069.00;;;4.00
11849;BMP180;5983;49.966;8.052;2022-11-20T01:39:13;100074.00;;;4.00
11849;BMP180;5983;49.966;8.052;2022-11-20T01:41:41;100073.00;;;3.90
11849;BMP180;5983;49.966;8.052;2022-11-20T01:44:49;100069.00;;;4.00
11849;BMP180;5983;49.966;8.052;2022-11-20T01:47:25;100063.00;;;4.00
11849;BMP180;5983;49.966;8.052;2022-11-20T01:50:00;100068.00;;;4.00
11849;BMP180;5983;49.966;8.052;2022-11-20T01:52:33;100062.00;;;4.00
11849;BMP180;5983;49.966;8.052;2022-11-20T01:55:06;100052.00;;;4.00
11849;BMP180;5983;49.966;8.052;2022-11-20T01:57:35;100053.00;;;3.90
11849;BMP180;5983;49.966;8.052;2022-11-20T02:00:07;100055.00;;;4.00
11849;BMP180;5983;49.966;8.052;2022-11-20T02:02:37;100054.00;;;4.00
11849;BMP180;5983;49.966;8.052;2022-11-20T02:05:18;100064.00;;;4.00
11849;BMP180;5983;49.966;8.052;2022-11-20T02:07:48;100063.00;;;4.00
11849;BMP180;5983;49.966;8.052;2022-11-20T02:10:16;100054.00;;;4.00
11849;BMP180;5983;49.966;8.052;2022-11-20T02:12:43;100052.00;;;4.00
11849;BMP180;5983;49.966;8.052;2022-11-20T02:15:27;100046.00;;;4.00
11849;BMP180;5983;49.966;8.052;2022-11-20T02:17:56;100052.00;;;4.00
11849;BMP180;5983;49.966;8.052;2022-11-20T02:20:23;100043.00;;;4.00
11849;BMP180;5983;49.966;8.052;2022-11-20T02:22:57;100030.00;;;4.00
11849;BMP180;5983;49.966;8.052;2022-11-20T02:25:30;100020.00;;;4.00
11849;BMP180;5983;49.966;8.052;2022-11-20T02:27:57;100039.00;;;4.00
11849;BMP180;5983;49.966;8.052;2022-11-20T02:30:24;100045.00;;;3.90
11849;BMP180;5983;49.966;8.052;2022-11-20T02:32:52;100038.00;;;4.00
11849;BMP180;5983;49.966;8.052;2022-11-20T02:35:44;100040.00;;;4.00
11849;BMP180;5983;49.966;8.052;2022-11-20T02:38:14;100030.00;;;3.90
11849;BMP180;5983;49.966;8.052;2022-11-20T02:40:42;100037.00;;;4.00
11849;BMP180;5983;49.966;8.052;2022-11-20T02:43:10;100032.00;;;4.00
11849;BMP180;5983;49.966;8.052;2022-11-20T02:45:38;100030.00;;;4.00
11849;BMP180;5983;49.966;8.052;2022-11-20T02:48:06;100033.00;;;4.00
11849;BMP180;5983;49.966;8.052;2022-11-20T02:50:37;100045.00;;;4.00
11849;BMP180;5983;49.966;8.052;2022-11-20T02:53:06;100044.00;;;4.00
11849;BMP180;5983;49.966;8.052;2022-11-20T02:55:33;100034.00;;;4.00
11849;BMP180;5983;49.966;8.052;2022-11-20T02:58:01;100038.00;;;4.00
11849;BMP180;5983;49.966;8.052;2022-11-20T03:00:28;100028.00;;;4.00
11849;BMP180;5983;49.966;8.052;2022-11-20T03:02:56;100036.00;;;4.00
11849;BMP180;5983;49.966;8.052;2022-11-20T03:05:23;100028.00;;;4.00
11849;BMP180;5983;49.966;8.052;2022-11-20T03:07:49;100020.00;;;4.00
11849;BMP180;5983;49.966;8.052;2022-11-20T03:10:17;100037.00;;;4.00
11849;BMP180;5983;49.966;8.052;2022-11-20T03:12:44;100020.00;;;3.90
11849;BMP180;5983;49.966;8.052;2022-11-20T03:15:12;100015.00;;;3.90
11849;BMP180;5983;49.966;8.052;2022-11-20T03:17:39;100020.00;;;3.90
11849;BMP180;5983;49.966;8.052;2022-11-20T03:20:08;100023.00;;;3.90
11849;BMP180;5983;49.966;8.052;2022-11-20T03:22:35;100020.00;;;3.90
11849;BMP180;5983;49.966;8.052;2022-11-20T03:25:03;100038.00;;;4.00
11849;BMP180;5983;49.966;8.052;2022-11-20T03:27:33;100029.00;;;3.90
11849;BMP180;5983;49.966;8.052;2022-11-20T03:30:00;100022.00;;;3.90
11849;BMP180;5983;49.966;8.052;2022-11-20T03:32:29;100027.00;;;3.90
11849;BMP180;5983;49.966;8.052;2022-11-20T03:34:56;100022.00;;;3.90
11849;BMP180;5983;49.966;8.052;2022-11-20T03:37:23;100019.00;;;3.90
11849;BMP180;5983;49.966;8.052;2022-11-20T03:39:50;100014.00;;;3.90
11849;BMP180;5983;49.966;8.052;2022-11-20T03:42:17;100020.00;;;3.90
11849;BMP180;5983;49.966;8.052;2022-11-20T03:45:01;100017.00;;;3.90
11849;BMP180;5983;49.966;8.052;2022-11-20T03:47:30;100009.00;;;3.90
11849;BMP180;5983;49.966;8.052;2022-11-20T03:49:57;100018.00;;;3.90
11849;BMP180;5983;49.966;8.052;2022-11-20T03:52:23;100020.00;;;3.90
11849;BMP180;5983;49.966;8.052;2022-11-20T03:54:50;100003.00;;;3.90
11849;BMP180;5983;49.966;8.052;2022-11-20T03:57:17;100010.00;;;3.90
11849;BMP180;5983;49.966;8.052;2022-11-20T03:59:44;99994.00;;;3.90
11849;BMP180;5983;49.966;8.052;2022-11-20T04:02:11;99997.00;;;3.90
11849;BMP180;5983;49.966;8.052;2022-11-20T04:04:40;100005.00;;;3.90
11849;BMP180;5983;49.966;8.052;2022-11-20T04:07:07;99994.00;;;3.90
11849;BMP180;5983;49.966;8.052;2022-11-20T04:09:34;99993.00;;;3.90
11849;BMP180;5983;49.966;8.052;2022-11-20T04:12:01;100009.00;;;3.90
11849;BMP180;5983;49.966;8.052;2022-11-20T04:14:27;100010.00;;;3.90
11849;BMP180;5983;49.966;8.052;2022-11-20T04:16:54;100012.00;;;3.90
11849;BMP180;5983;49.966;8.052;2022-11-20T04:19:21;100008.00;;;4.00
11849;BMP180;5983;49.966;8.052;2022-11-20T04:21:50;100013.00;;;4.00
11849;BMP180;5983;49.966;8.052;2022-11-20T04:24:17;100003.00;;;4.00
11849;BMP180;5983;49.966;8.052;2022-11-20T04:26:44;99986.00;;;4.00
11849;BMP180;5983;49.966;8.052;2022-11-20T04:29:12;100000.00;;;4.00
11849;BMP180;5983;49.966;8.052;2022-11-20T04:31:39;99994.00;;;3.90
11849;BMP180;5983;49.966;8.052;2022-11-20T04:34:07;99996.00;;;3.90
11849;BMP180;5983;49.966;8.052;2022-11-20T04:36:34;100007.00;;;3.90
11849;BMP180;5983;49.966;8.052;2022-11-20T04:39:06;100002.00;;;3.90
11849;BMP180;5983;49.966;8.052;2022-11-20T04:41:35;99993.00;;;3.90
11849;BMP180;5983;49.966;8.052;2022-11-20T04:44:05;99988.00;;;3.90
11849;BMP180;5983;49.966;8.052;2022-11-20T04:46:35;100001.00;;;3.90
11849;BMP180;5983;49.966;8.052;2022-11-20T04:49:03;100004.00;;;3.80
11849;BMP180;5983;49.966;8.052;2022-11-20T04:51:30;99998.00;;;3.90
11849;BMP180;5983;49.966;8.052;2022-11-20T04:53:57;99995.00;;;3.90
11849;BMP180;5983;49.966;8.052;2022-11-20T04:56:25;99994.00;;;3.90
11849;BMP180;5983;49.966;8.052;2022-11-20T04:58:52;100001.00;;;3.90
11849;BMP180;5983;49.966;8.052;2022-11-20T05:01:22;99990.00;;;3.90
11849;BMP180;5983;49.966;8.052;2022-11-20T05:03:50;99999.00;;;3.90
11849;BMP180;5983;49.966;8.052;2022-11-20T05:06:21;99993.00;;;3.90
11849;BMP180;5983;49.966;8.052;2022-11-20T05:08:49;99993.00;;;3.90
11849;BMP180;5983;49.966;8.052;2022-11-20T05:11:18;99992.00;;;3.90
11849;BMP180;5983;49.966;8.052;2022-11-20T05:13:48;99996.00;;;3.80
11849;BMP180;5983;49.966;8.052;2022-11-20T05:16:17;99997.00;;;3.80
11849;BMP180;5983;49.966;8.052;2022-11-20T05:18:45;100002.00;;;3.80
11849;BMP180;5983;49.966;8.052;2022-11-20T05:21:14;99993.00;;;3.80
11849;BMP180;5983;49.966;8.052;2022-11-20T05:23:42;99986.00;;;3.90
11849;BMP180;5983;49.966;8.052;2022-11-20T05:26:15;99980.00;;;3.90
11849;BMP180;5983;49.966;8.052;2022-11-20T05:28:43;99977.00;;;3.90
11849;BMP180;5983;49.966;8.052;2022-11-20T05:31:13;99977.00;;;3.90
11849;BMP180;5983;49.966;8.052;2022-11-20T05:33:42;99985.00;;;3.90
11849;BMP180;5983;49.966;8.052;2022-11-20T05:36:10;99990.00;;;3.90
11849;BMP180;5983;49.966;8.052;2022-11-20T05:38:38;99989.00;;;3.90
11849;BMP180;5983;49.966;8.052;2022-11-20T05:41:07;99988.00;;;3.90
11849;BMP180;5983;49.966;8.052;2022-11-20T05:43:36;99988.00;;;3.90
11849;BMP180;5983;49.966;8.052;2022-11-20T05:46:04;99987.00;;;3.90
11849;BMP180;5983;49.966;8.052;2022-11-20T05:48:35;99984.00;;;3.90
11849;BMP180;5983;49.966;8.052;2022-11-20T05:51:05;99975.00;;;3.90
11849;BMP180;5983;49.966;8.052;2022-11-20T05:53:33;99986.00;;;3.90
11849;BMP180;5983;49.966;8.052;2022-11-20T05:56:03;99973.00;;;3.90
11849;BMP180;5983;49.966;8.052;2022-11-20T05:58:31;99972.00;;;3.90
11849;BMP180;5983;49.966;8.052;2022-11-20T06:01:05;99964.00;;;3.90
11849;BMP180;5983;49.966;8.052;2022-11-20T06:03:33;99964.00;;;3.90
11849;BMP180;5983;49.966;8.052;2022-11-20T06:06:02;99970.00;;;3.90
11849;BMP180;5983;49.966;8.052;2022-11-20T06:08:29;99979.00;;;4.00
11849;BMP180;5983;49.966;8.052;2022-11-20T06:10:57;99982.00;;;4.00
11849;BMP180;5983;49.966;8.052;2022-11-20T06:13:24;99974.00;;;4.00
11849;BMP180;5983;49.966;8.052;2022-11-20T06:15:53;99976.00;;;4.00
11849;BMP180;5983;49.966;8.052;2022-11-20T06:18:20;99972.00;;;3.90
11849;BMP180;5983;49.966;8.052;2022-11-20T06:20:49;99975.00;;;3.90
11849;BMP180;5983;49.966;8.052;2022-11-20T06:23:16;99965.00;;;3.90
11849;BMP180;5983;49.966;8.052;2022-11-20T06:25:43;99972.00;;;3.80
11849;BMP180;5983;49.966;8.052;2022-11-20T06:28:10;99977.00;;;3.80
11849;BMP180;5983;49.966;8.052;2022-11-20T06:30:43;99964.00;;;3.80
11849;BMP180;5983;49.966;8.052;2022-11-20T06:33:11;99967.00;;;3.90
11849;BMP180;5983;49.966;8.052;2022-11-20T06:35:38;99969.00;;;3.90
11849;BMP180;5983;49.966;8.052;2022-11-20T06:38:06;99959.00;;;3.90
11849;BMP180;5983;49.966;8.052;2022-11-20T06:40:33;99965.00;;;3.90
11849;BMP180;5983;49.966;8.052;2022-11-20T06:43:00;99983.00;;;3.90
11849;BMP180;5983;49.966;8.052;2022-11-20T06:45:27;99970.00;;;3.90
11849;BMP180;5983;49.966;8.052;2022-11-20T06:47:56;99981.00;;;3.90
11849;BMP180;5983;49.966;8.052;2022-11-20T06:50:24;99976.00;;;3.90
11849;BMP180;5983;49.966;8.052;2022-11-20T06:52:51;99975.00;;;3.90
11849;BMP180;5983;49.966;8.052;2022-11-20T06:55:20;99986.00;;;4.00
11849;BMP180;5983;49.966;8.052;2022-11-20T06:57:47;99982.00;;;4.00
11849;BMP180;5983;49.966;8.052;2022-11-20T07:00:14;99988.00;;;4.00
11849;BMP180;5983;49.966;8.052;2022-11-20T07:02:41;99978.00;;;4.00
11849;BMP180;5983;49.966;8.052;2022-11-20T07:05:08;99988.00;;;4.00
11849;BMP180;5983;49.966;8.052;2022-11-20T07:07:35;99990.00;;;4.00
11849;BMP180;5983;49.966;8.052;2022-11-20T07:10:03;99988.00;;;4.00
11849;BMP180;5983;49.966;8.052;2022-11-20T07:12:32;99993.00;;;4.00
11849;BMP180;5983;49.966;8.052;2022-11-20T07:14:59;99998.00;;;4.00
11849;BMP180;5983;49.966;8.052;2022-11-20T07:17:26;99994.00;;;4.10
11849;BMP180;5983;49.966;8.052;2022-11-20T07:19:52;100002.00;;;4.10
11849;BMP180;5983;49.966;8.052;2022-11-20T07:22:20;99993.00;;;4.10
11849;BMP180;5983;49.966;8.052;2022-11-20T07:24:47;99992.00;;;4.10
11849;BMP180;5983;49.966;8.052;2022-11-20T07:27:14;100001.00;;;4.10
11849;BMP180;5983;49.966;8.052;2022-11-20T07:29:42;99998.00;;;4.10
11849;BMP180;5983;49.966;8.052;2022-11-20T07:32:09;100006.00;;;4.10
11849;BMP180;5983;49.966;8.052;2022-11-20T07:34:36;100011.00;;;4.20
11849;BMP180;5983;49.966;8.052;2022-11-20T07:37:03;100008.00;;;4.20
11849;BMP180;5983;49.966;8.052;2022-11-20T07:39:30;100004.00;;;4.20
11849;BMP180;5983;49.966;8.052;2022-11-20T07:41:57;100007.00;;;4.20
11849;BMP180;5983;49.966;8.052;2022-11-20T07:44:24;100016.00;;;4.30
11849;BMP180;5983;49.966;8.052;2022-11-20T07:46:53;100017.00;;;4.30
11849;BMP180;5983;49.966;8.052;2022-11-20T07:49:20;100005.00;;;4.30
11849;BMP180;5983;49.966;8.052;2022-11-20T07:51:49;100009.00;;;4.30
11849;BMP180;5983;49.966;8.052;2022-11-20T07:54:28;100014.00;;;4.40
11849;BMP180;5983;49.966;8.052;2022-11-20T07:56:55;100010.00;;;4.50
11849;BMP180;5983;49.966;8.052;2022-11-20T07:59:22;100020.00;;;4.50
11849;BMP180;5983;49.966;8.052;2022-11-20T08:01:49;100015.00;;;4.50
11849;BMP180;5983;49.966;8.052;2022-11-20T08:04:17;100021.00;;;4.50
11849;BMP180;5983;49.966;8.052;2022-11-20T08:06:44;100019.00;;;4.50
11849;BMP180;5983;49.966;8.052;2022-11-20T08:09:11;100026.00;;;4.50
11849;BMP180;5983;49.966;8.052;2022-11-20T08:11:38;100026.00;;;4.50
11849;BMP180;5983;49.966;8.052;2022-11-20T08:14:22;100032.00;;;4.50
11849;BMP180;5983;49.966;8.052;2022-11-20T08:16:50;100033.00;;;4.50
11849;BMP180;5983;49.966;8.052;2022-11-20T08:19:18;100032.00;;;4.50
11849;BMP180;5983;49.966;8.052;2022-11-20T08:21:45;100036.00;;;4.50
11849;BMP180;5983;49.966;8.052;2022-11-20T08:24:12;100033.00;;;4.60
11849;BMP180;5983;49.966;8.052;2022-11-20T08:26:40;100025.00;;;4.60
11849;BMP180;5983;49.966;8.052;2022-11-20T08:29:07;100029.00;;;4.60
11849;BMP180;5983;49.966;8.052;2022-11-20T08:31:35;100035.00;;;4.70
11849;BMP180;5983;49.966;8.052;2022-11-20T08:34:02;100032.00;;;4.70
11849;BMP180;5983;49.966;8.052;2022-11-20T08:36:33;100034.00;;;4.70
11849;BMP180;5983;49.966;8.052;2022-11-20T08:39:00;100043.00;;;4.80
11849;BMP180;5983;49.966;8.052;2022-11-20T08:41:28;100040.00;;;4.80
11849;BMP180;5983;49.966;8.052;2022-11-20T08:44:00;100042.00;;;4.80
11849;BMP180;5983;49.966;8.052;2022-11-20T08:46:32;100042.00;;;4.80
11849;BMP180;5983;49.966;8.052;2022-11-20T08:48:59;100044.00;;;4.80
11849;BMP180;5983;49.966;8.052;2022-11-20T08:51:26;100050.00;;;4.80
11849;BMP180;5983;49.966;8.052;2022-11-20T08:53:55;100049.00;;;4.80
11849;BMP180;5983;49.966;8.052;2022-11-20T08:56:22;100058.00;;;4.80
11849;BMP180;5983;49.966;8.052;2022-11-20T08:58:50;100067.00;;;4.80
11849;BMP180;5983;49.966;8.052;2022-11-20T09:01:18;100059.00;;;4.90
11849;BMP180;5983;49.966;8.052;2022-11-20T09:03:46;100060.00;;;4.90
11849;BMP180;5983;49.966;8.052;2022-11-20T09:06:13;100056.00;;;4.90
11849;BMP180;5983;49.966;8.052;2022-11-20T09:08:40;100042.00;;;4.90
11849;BMP180;5983;49.966;8.052;2022-11-20T09:11:09;100060.00;;;4.90
11849;BMP180;5983;49.966;8.052;2022-11-20T09:13:37;100052.00;;;4.80
11849;BMP180;5983;49.966;8.052;2022-11-20T09:16:08;100067.00;;;4.90
11849;BMP180;5983;49.966;8.052;2022-11-20T09:18:36;100059.00;;;4.90
11849;BMP180;5983;49.966;8.052;2022-11-20T09:21:07;100054.00;;;4.80
11849;BMP180;5983;49.966;8.052;2022-11-20T09:23:37;100046.00;;;4.80
11849;BMP180;5983;49.966;8.052;2022-11-20T09:26:05;100045.00;;;4.80
11849;BMP180;5983;49.966;8.052;2022-11-20T09:28:34;100058.00;;;4.80
11849;BMP180;5983;49.966;8.052;2022-11-20T09:31:05;100052.00;;;4.80
11849;BMP180;5983;49.966;8.052;2022-11-20T09:33:32;100054.00;;;4.80
11849;BMP180;5983;49.966;8.052;2022-11-20T09:35:59;100049.00;;;4.80
11849;BMP180;5983;49.966;8.052;2022-11-20T09:38:27;100051.00;;;4.80
11849;BMP180;5983;49.966;8.052;2022-11-20T09:40:58;100049.00;;;4.90
11849;BMP180;5983;49.966;8.052;2022-11-20T09:43:46;100055.00;;;5.00
11849;BMP180;5983;49.966;8.052;2022-11-20T09:46:25;100055.00;;;5.00
11849;BMP180;5983;49.966;8.052;2022-11-20T09:49:22;100053.00;;;5.00
11849;BMP180;5983;49.966;8.052;2022-11-20T09:51:57;100049.00;;;5.00
11849;BMP180;5983;49.966;8.052;2022-11-20T09:54:30;100054.00;;;5.00
11849;BMP180;5983;49.966;8.052;2022-11-20T09:57:01;100057.00;;;5.10
11849;BMP180;5983;49.966;8.052;2022-11-20T09:59:37;100041.00;;;5.10
11849;BMP180;5983;49.966;8.052;2022-11-20T10:02:16;100055.00;;;5.10
11849;BMP180;5983;49.966;8.052;2022-11-20T10:04:53;100045.00;;;5.10
11849;BMP180;5983;49.966;8.052;2022-11-20T10:07:29;100055.00;;;5.20
11849;BMP180;5983;49.966;8.052;2022-11-20T10:09:57;100050.00;;;5.20
11849;BMP180;5983;49.966;8.052;2022-11-20T10:12:34;100037.00;;;5.10
11849;BMP180;5983;49.966;8.052;2022-11-20T10:15:33;100045.00;;;5.10
11849;BMP180;5983;49.966;8.052;2022-11-20T10:18:23;100041.00;;;5.10
11849;BMP180;5983;49.966;8.052;2022-11-20T10:21:04;100033.00;;;5.10
11849;BMP180;5983;49.966;8.052;2022-11-20T10:30:27;100022.00;;;5.20
11849;BMP180;5983;49.966;8.052;2022-11-20T10:33:05;100021.00;;;5.30
11849;BMP180;5983;49.966;8.052;2022-11-20T10:35:42;100017.00;;;5.30
11849;BMP180;5983;49.966;8.052;2022-11-20T10:38:19;100014.00;;;5.30
11849;BMP180;5983;49.966;8.052;2022-11-20T10:40:53;100008.00;;;5.40
11849;BMP180;5983;49.966;8.052;2022-11-20T10:43:41;100006.00;;;5.40
11849;BMP180;5983;49.966;8.052;2022-11-20T10:46:15;100000.00;;;5.50
11849;BMP180;5983;49.966;8.052;2022-11-20T10:48:45;99994.00;;;5.50
11849;BMP180;5983;49.966;8.052;2022-11-20T10:51:30;100008.00;;;5.50
11849;BMP180;5983;49.966;8.052;2022-11-20T10:54:12;99996.00;;;5.50
11849;BMP180;5983;49.966;8.052;2022-11-20T10:56:47;99998.00;;;5.60
11849;BMP180;5983;49.966;8.052;2022-11-20T10:59:48;99999.00;;;5.60
11849;BMP180;5983;49.966;8.052;2022-11-20T11:02:20;100012.00;;;5.60
11849;BMP180;5983;49.966;8.052;2022-11-20T11:04:50;100003.00;;;5.70
11849;BMP180;5983;49.966;8.052;2022-11-20T11:07:22;99999.00;;;5.70
11849;BMP180;5983;49.966;8.052;2022-11-20T11:09:53;99989.00;;;5.70
11849;BMP180;5983;49.966;8.052;2022-11-20T11:12:24;99984.00;;;5.80
11849;BMP180;5983;49.966;8.052;2022-11-20T11:14:54;99978.00;;;5.90
11849;BMP180;5983;49.966;8.052;2022-11-20T11:17:27;99984.00;;;5.90
11849;BMP180;5983;49.966;8.052;2022-11-20T11:20:05;99975.00;;;5.90
11849;BMP180;5983;49.966;8.052;2022-11-20T11:22:34;99979.00;;;6.00
11849;BMP180;5983;49.966;8.052;2022-11-20T11:25:26;99972.00;;;6.00
11849;BMP180;5983;49.966;8.052;2022-11-20T11:27:58;99969.00;;;6.10
11849;BMP180;5983;49.966;8.052;2022-11-20T11:30:27;99975.00;;;6.10
11849;BMP180;5983;49.966;8.052;2022-11-20T11:33:10;99968.00;;;6.10
11849;BMP180;5983;49.966;8.052;2022-11-20T11:35:45;99964.00;;;6.10
11849;BMP180;5983;49.966;8.052;2022-11-20T11:38:17;99958.00;;;6.10
11849;BMP180;5983;49.966;8.052;2022-11-20T11:40:46;99969.00;;;6.10
11849;BMP180;5983;49.966;8.052;2022-11-20T11:43:20;99958.00;;;6.20
11849;BMP180;5983;49.966;8.052;2022-11-20T11:46:29;99956.00;;;6.30
11849;BMP180;5983;49.966;8.052;2022-11-20T11:49:00;99964.00;;;6.30
11849;BMP180;5983;49.966;8.052;2022-11-20T11:51:45;99962.00;;;6.30
11849;BMP180;5983;49.966;8.052;2022-11-20T11:54:21;99948.00;;;6.20
11849;BMP180;5983;49.966;8.052;2022-11-20T11:56:51;99940.00;;;6.10
11849;BMP180;5983;49.966;8.052;2022-11-20T11:59:28;99943.00;;;6.10
11849;BMP180;5983;49.966;8.052;2022-11-20T12:02:16;99945.00;;;6.10
11849;BMP180;5983;49.966;8.052;2022-11-20T12:05:01;99934.00;;;6.10
11849;BMP180;5983;49.966;8.052;2022-11-20T12:07:41;99932.00;;;6.10
11849;BMP180;5983;49.966;8.052;2022-11-20T12:10:20;99930.00;;;6.20
11849;BMP180;5983;49.966;8.052;2022-11-20T12:12:54;99923.00;;;6.30
11849;BMP180;5983;49.966;8.052;2022-11-20T12:15:32;99934.00;;;6.30
11849;BMP180;5983;49.966;8.052;2022-11-20T12:18:14;99925.00;;;6.40
11849;BMP180;5983;49.966;8.052;2022-11-20T12:21:34;99919.00;;;6.30
11849;BMP180;5983;49.966;8.052;2022-11-20T12:24:25;99932.00;;;6.40
11849;BMP180;5983;49.966;8.052;2022-11-20T12:27:14;99930.00;;;6.50
11849;BMP180;5983;49.966;8.052;2022-11-20T12:29:58;99920.00;;;6.50
11849;BMP180;5983;49.966;8.052;2022-11-20T12:33:15;99912.00;;;6.60
11849;BMP180;5983;49.966;8.052;2022-11-20T12:36:07;99914.00;;;6.60
11849;BMP180;5983;49.966;8.052;2022-11-20T12:39:51;99907.00;;;6.60
11849;BMP180;5983;49.966;8.052;2022-11-20T12:46:34;99900.00;;;6.60
11849;BMP180;5983;49.966;8.052;2022-11-20T12:49:32;99898.00;;;6.60
11849;BMP180;5983;49.966;8.052;2022-11-20T12:52:28;99905.00;;;6.60
11849;BMP180;5983;49.966;8.052;2022-11-20T12:55:21;99901.00;;;6.60
11849;BMP180;5983;49.966;8.052;2022-11-20T12:57:57;99907.00;;;6.50
11849;BMP180;5983;49.966;8.052;2022-11-20T13:00:40;99901.00;;;6.50
11849;BMP180;5983;49.966;8.052;2022-11-20T13:03:39;99900.00;;;6.50
11849;BMP180;5983;49.966;8.052;2022-11-20T13:06:42;99883.00;;;6.50
11849;BMP180;5983;49.966;8.052;2022-11-20T13:09:19;99879.00;;;6.40
11849;BMP180;5983;49.966;8.052;2022-11-20T13:12:01;99886.00;;;6.50
11849;BMP180;5983;49.966;8.052;2022-11-20T13:14:36;99883.00;;;6.50
11849;BMP180;5983;49.966;8.052;2022-11-20T13:17:11;99872.00;;;6.60
11849;BMP180;5983;49.966;8.052;2022-11-20T13:19:39;99869.00;;;6.80
11849;BMP180;5983;49.966;8.052;2022-11-20T13:22:09;99870.00;;;6.90
11849;BMP180;5983;49.966;8.052;2022-11-20T13:24:36;99875.00;;;7.00
11849;BMP180;5983;49.966;8.052;2022-11-20T13:27:19;99877.00;;;7.00
11849;BMP180;5983;49.966;8.052;2022-11-20T13:30:00;99870.00;;;7.00
11849;BMP180;5983;49.966;8.052;2022-11-20T13:32:28;99865.00;;;7.00
11849;BMP180;5983;49.966;8.052;2022-11-20T13:34:59;99857.00;;;7.00
11849;BMP180;5983;49.966;8.052;2022-11-20T13:37:31;99859.00;;;7.10
11849;BMP180;5983;49.966;8.052;2022-11-20T13:40:13;99854.00;;;7.10
11849;BMP180;5983;49.966;8.052;2022-11-20T13:42:45;99854.00;;;7.20
11849;BMP180;5983;49.966;8.052;2022-11-20T13:45:23;99850.00;;;7.20
11849;BMP180;5983;49.966;8.052;2022-11-20T13:47:55;99851.00;;;7.20
11849;BMP180;5983;49.966;8.052;2022-11-20T13:50:40;99852.00;;;7.20
11849;BMP180;5983;49.966;8.052;2022-11-20T13:53:29;99848.00;;;7.10
11849;BMP180;5983;49.966;8.052;2022-11-20T13:56:05;99843.00;;;7.10
11849;BMP180;5983;49.966;8.052;2022-11-20T13:58:53;99833.00;;;7.00
11849;BMP180;5983;49.966;8.052;2022-11-20T14:01:28;99837.00;;;7.00
11849;BMP180;5983;49.966;8.052;2022-11-20T14:03:57;99842.00;;;7.00
11849;BMP180;5983;49.966;8.052;2022-11-20T14:06:28;99836.00;;;7.00
11849;BMP180;5983;49.966;8.052;2022-11-20T14:08:59;99826.00;;;7.00
11849;BMP180;5983;49.966;8.052;2022-11-20T14:11:29;99826.00;;;6.90
11849;BMP180;5983;49.966;8.052;2022-11-20T14:14:03;99829.00;;;6.90
11849;BMP180;5983;49.966;8.052;2022-11-20T14:16:33;99832.00;;;6.90
11849;BMP180;5983;49.966;8.052;2022-11-20T14:19:28;99826.00;;;6.80
11849;BMP180;5983;49.966;8.052;2022-11-20T14:22:21;99830.00;;;6.80
11849;BMP180;5983;49.966;8.052;2022-11-20T14:25:02;99805.00;;;6.80
11849;BMP180;5983;49.966;8.052;2022-11-20T14:27:38;99810.00;;;6.80
11849;BMP180;5983;49.966;8.052;2022-11-20T14:30:16;99796.00;;;6.80
11849;BMP180;5983;49.966;8.052;2022-11-20T14:32:45;99797.00;;;6.80
11849;BMP180;5983;49.966;8.052;2022-11-20T14:35:21;99799.00;;;6.70
11849;BMP180;5983;49.966;8.052;2022-11-20T14:37:50;99804.00;;;6.70
11849;BMP180;5983;49.966;8.052;2022-11-20T14:40:28;99798.00;;;6.70
11849;BMP180;5983;49.966;8.052;2022-11-20T14:42:59;99791.00;;;6.70
11849;BMP180;5983;49.966;8.052;2022-11-20T14:45:29;99799.00;;;6.70
11849;BMP180;5983;49.966;8.052;2022-11-20T14:48:00;99790.00;;;6.60
11849;BMP180;5983;49.966;8.052;2022-11-20T14:50:29;99788.00;;;6.60
11849;BMP180;5983;49.966;8.052;2022-11-20T14:53:00;99785.00;;;6.60
11849;BMP180;5983;49.966;8.052;2022-11-20T14:55:33;99783.00;;;6.50
11849;BMP180;5983;49.966;8.052;2022-11-20T14:58:04;99781.00;;;6.60
11849;BMP180;5983;49.966;8.052;2022-11-20T15:00:35;99786.00;;;6.60
11849;BMP180;5983;49.966;8.052;2022-11-20T15:03:03;99781.00;;;6.60
11849;BMP180;5983;49.966;8.052;2022-11-20T15:05:48;99770.00;;;6.50